sensor_id;sensor_type;location;lat;lon;timestamp;temperature;humidity
17984;DHT22;9117;52.420;20.728;2022-10-31T00:00:47;8.20;1.00
17984;DHT22;9117;52.420;20.728;2022-10-31T00:03:15;8.20;1.00
17984;DHT22;9117;52.420;20.728;2022-10-31T00:05:45;8.10;1.00
17984;DHT22;9117;52.420;20.728;2022-10-31T00:08:13;8.00;1.00
17984;DHT22;9117;52.420;20.728;2022-10-31T00:10:44;8.00;1.00
17984;DHT22;9117;52.420;20.728;2022-10-31T00:13:13;7.90;1.00
17984;DHT22;9117;52.420;20.728;2022-10-31T00:15:41;7.80;1.00
17984;DHT22;9117;52.420;20.728;2022-10-31T00:18:10;7.70;1.00
17984;DHT22;9117;52.420;20.728;2022-10-31T00:20:38;7.70;1.00
17984;DHT22;9117;52.420;20.728;2022-10-31T00:23:07;7.80;1.00
17984;DHT22;9117;52.420;20.728;2022-10-31T00:25:36;7.90;1.00
17984;DHT22;9117;52.420;20.728;2022-10-31T00:28:07;7.90;1.00
17984;DHT22;9117;52.420;20.728;2022-10-31T00:30:37;7.90;1.00
17984;DHT22;9117;52.420;20.728;2022-10-31T00:33:04;7.90;1.00
17984;DHT22;9117;52.420;20.728;2022-10-31T00:35:32;7.90;1.00
17984;DHT22;9117;52.420;20.728;2022-10-31T00:38:00;7.80;1.00
17984;DHT22;9117;52.420;20.728;2022-10-31T00:40:28;7.80;1.00
17984;DHT22;9117;52.420;20.728;2022-10-31T00:42:56;7.80;1.00
17984;DHT22;9117;52.420;20.728;2022-10-31T00:45:26;7.90;1.00
17984;DHT22;9117;52.420;20.728;2022-10-31T00:47:54;7.90;1.00
17984;DHT22;9117;52.420;20.728;2022-10-31T00:50:23;8.00;1.00
17984;DHT22;9117;52.420;20.728;2022-10-31T00:52:51;7.90;1.00
17984;DHT22;9117;52.420;20.728;2022-10-31T00:55:19;7.90;1.00
17984;DHT22;9117;52.420;20.728;2022-10-31T00:57:47;8.00;1.00
17984;DHT22;9117;52.420;20.728;2022-10-31T01:00:15;8.00;1.00
17984;DHT22;9117;52.420;20.728;2022-10-31T01:02:45;8.00;1.00
17984;DHT22;9117;52.420;20.728;2022-10-31T01:05:13;7.90;1.00
17984;DHT22;9117;52.420;20.728;2022-10-31T01:07:41;7.90;1.00
17984;DHT22;9117;52.420;20.728;2022-10-31T01:10:11;7.90;1.00
17984;DHT22;9117;52.420;20.728;2022-10-31T01:12:39;7.90;1.00
17984;DHT22;9117;52.420;20.728;2022-10-31T01:15:09;7.90;1.00
17984;DHT22;9117;52.420;20.728;2022-10-31T01:17:38;7.90;1.00
17984;DHT22;9117;52.420;20.728;2022-10-31T01:20:09;7.90;1.00
17984;DHT22;9117;52.420;20.728;2022-10-31T01:22:38;7.90;1.00
17984;DHT22;9117;52.420;20.728;2022-10-31T01:25:07;7.90;1.00
17984;DHT22;9117;52.420;20.728;2022-10-31T01:27:35;7.90;1.00
17984;DHT22;9117;52.420;20.728;2022-10-31T01:30:04;7.80;1.00
17984;DHT22;9117;52.420;20.728;2022-10-31T01:32:32;7.80;1.00
17984;DHT22;9117;52.420;20.728;2022-10-31T01:35:00;7.70;1.00
17984;DHT22;9117;52.420;20.728;2022-10-31T01:37:30;7.70;1.00
17984;DHT22;9117;52.420;20.728;2022-10-31T01:39:58;7.60;1.00
17984;DHT22;9117;52.420;20.728;2022-10-31T01:42:26;7.60;1.00
17984;DHT22;9117;52.420;20.728;2022-10-31T01:44:56;7.80;1.00
17984;DHT22;9117;52.420;20.728;2022-10-31T01:47:35;7.50;1.00
17984;DHT22;9117;52.420;20.728;2022-10-31T01:50:11;7.40;1.00
17984;DHT22;9117;52.420;20.728;2022-10-31T01:52:43;7.40;1.00
17984;DHT22;9117;52.420;20.728;2022-10-31T01:55:16;7.40;1.00
17984;DHT22;9117;52.420;20.728;2022-10-31T01:57:48;7.30;1.00
17984;DHT22;9117;52.420;20.728;2022-10-31T02:00:19;7.20;1.00
17984;DHT22;9117;52.420;20.728;2022-10-31T02:02:49;7.30;1.00
17984;DHT22;9117;52.420;20.728;2022-10-31T02:05:19;7.20;1.00
17984;DHT22;9117;52.420;20.728;2022-10-31T02:07:54;7.10;1.00
17984;DHT22;9117;52.420;20.728;2022-10-31T02:10:23;7.10;1.00
17984;DHT22;9117;52.420;20.728;2022-10-31T02:12:53;7.20;1.00
17984;DHT22;9117;52.420;20.728;2022-10-31T02:15:21;7.50;1.00
17984;DHT22;9117;52.420;20.728;2022-10-31T02:17:49;7.00;1.00
17984;DHT22;9117;52.420;20.728;2022-10-31T02:20:20;7.30;1.00
17984;DHT22;9117;52.420;20.728;2022-10-31T02:23:11;7.00;1.00
17984;DHT22;9117;52.420;20.728;2022-10-31T02:25:57;7.00;1.00
17984;DHT22;9117;52.420;20.728;2022-10-31T02:28:39;7.10;1.00
17984;DHT22;9117;52.420;20.728;2022-10-31T02:31:19;7.00;1.00
17984;DHT22;9117;52.420;20.728;2022-10-31T02:33:51;7.30;1.00
17984;DHT22;9117;52.420;20.728;2022-10-31T02:36:24;6.90;1.00
17984;DHT22;9117;52.420;20.728;2022-10-31T02:39:01;6.90;1.00
17984;DHT22;9117;52.420;20.728;2022-10-31T02:41:35;6.80;1.00
17984;DHT22;9117;52.420;20.728;2022-10-31T02:44:08;6.80;1.00
17984;DHT22;9117;52.420;20.728;2022-10-31T02:46:44;6.80;1.00
17984;DHT22;9117;52.420;20.728;2022-10-31T02:49:18;6.80;1.00
17984;DHT22;9117;52.420;20.728;2022-10-31T02:51:50;6.80;1.00
17984;DHT22;9117;52.420;20.728;2022-10-31T02:54:21;6.70;1.00
17984;DHT22;9117;52.420;20.728;2022-10-31T02:56:53;6.70;1.00
17984;DHT22;9117;52.420;20.728;2022-10-31T02:59:23;6.60;1.00
17984;DHT22;9117;52.420;20.728;2022-10-31T03:02:06;7.10;1.00
17984;DHT22;9117;52.420;20.728;2022-10-31T03:05:07;6.60;1.00
17984;DHT22;9117;52.420;20.728;2022-10-31T03:07:43;6.50;1.00
17984;DHT22;9117;52.420;20.728;2022-10-31T03:10:16;6.60;1.00
17984;DHT22;9117;52.420;20.728;2022-10-31T03:12:52;6.60;1.00
17984;DHT22;9117;52.420;20.728;2022-10-31T03:15:27;6.50;1.00
17984;DHT22;9117;52.420;20.728;2022-10-31T03:18:01;6.50;1.00
17984;DHT22;9117;52.420;20.728;2022-10-31T03:20:36;6.70;1.00
17984;DHT22;9117;52.420;20.728;2022-10-31T03:23:08;6.60;1.00
17984;DHT22;9117;52.420;20.728;2022-10-31T03:25:39;6.60;1.00
17984;DHT22;9117;52.420;20.728;2022-10-31T03:28:09;6.80;1.00
17984;DHT22;9117;52.420;20.728;2022-10-31T03:30:40;6.50;1.00
17984;DHT22;9117;52.420;20.728;2022-10-31T03:33:15;6.50;1.00
17984;DHT22;9117;52.420;20.728;2022-10-31T03:35:47;6.60;1.00
17984;DHT22;9117;52.420;20.728;2022-10-31T03:38:15;6.50;1.00
17984;DHT22;9117;52.420;20.728;2022-10-31T03:40:46;6.50;1.00
17984;DHT22;9117;52.420;20.728;2022-10-31T03:43:19;6.50;1.00
17984;DHT22;9117;52.420;20.728;2022-10-31T03:45:49;6.80;1.00
17984;DHT22;9117;52.420;20.728;2022-10-31T03:48:20;6.50;1.00
17984;DHT22;9117;52.420;20.728;2022-10-31T03:50:57;6.60;1.00
17984;DHT22;9117;52.420;20.728;2022-10-31T03:53:30;6.70;1.00
17984;DHT22;9117;52.420;20.728;2022-10-31T03:56:02;6.50;1.00
17984;DHT22;9117;52.420;20.728;2022-10-31T03:58:35;6.70;1.00
17984;DHT22;9117;52.420;20.728;2022-10-31T04:01:07;6.40;1.00
17984;DHT22;9117;52.420;20.728;2022-10-31T04:03:41;6.50;1.00
17984;DHT22;9117;52.420;20.728;2022-10-31T04:06:12;6.50;1.00
17984;DHT22;9117;52.420;20.728;2022-10-31T04:08:45;6.50;1.00
17984;DHT22;9117;52.420;20.728;2022-10-31T04:11:17;6.40;1.00
17984;DHT22;9117;52.420;20.728;2022-10-31T04:13:46;6.20;1.00
17984;DHT22;9117;52.420;20.728;2022-10-31T04:16:16;6.20;1.00
17984;DHT22;9117;52.420;20.728;2022-10-31T04:18:45;6.30;1.00
17984;DHT22;9117;52.420;20.728;2022-10-31T04:21:13;6.30;1.00
17984;DHT22;9117;52.420;20.728;2022-10-31T04:23:41;6.20;1.00
17984;DHT22;9117;52.420;20.728;2022-10-31T04:26:11;6.20;1.00
17984;DHT22;9117;52.420;20.728;2022-10-31T04:28:39;6.20;1.00
17984;DHT22;9117;52.420;20.728;2022-10-31T04:31:07;6.20;1.00
17984;DHT22;9117;52.420;20.728;2022-10-31T04:33:36;6.20;1.00
17984;DHT22;9117;52.420;20.728;2022-10-31T04:36:06;6.10;1.00
17984;DHT22;9117;52.420;20.728;2022-10-31T04:38:33;6.10;1.00
17984;DHT22;9117;52.420;20.728;2022-10-31T04:41:01;6.20;1.00
17984;DHT22;9117;52.420;20.728;2022-10-31T04:43:29;6.10;1.00
17984;DHT22;9117;52.420;20.728;2022-10-31T04:45:57;6.10;1.00
17984;DHT22;9117;52.420;20.728;2022-10-31T04:48:25;6.10;1.00
17984;DHT22;9117;52.420;20.728;2022-10-31T04:50:58;6.20;1.00
17984;DHT22;9117;52.420;20.728;2022-10-31T04:53:28;6.20;1.00
17984;DHT22;9117;52.420;20.728;2022-10-31T04:55:58;6.00;1.00
17984;DHT22;9117;52.420;20.728;2022-10-31T04:58:26;6.00;1.00
17984;DHT22;9117;52.420;20.728;2022-10-31T05:00:55;6.00;1.00
17984;DHT22;9117;52.420;20.728;2022-10-31T05:03:23;6.40;1.00
17984;DHT22;9117;52.420;20.728;2022-10-31T05:05:51;6.00;1.00
17984;DHT22;9117;52.420;20.728;2022-10-31T05:08:19;6.10;1.00
17984;DHT22;9117;52.420;20.728;2022-10-31T05:10:49;6.50;1.00
17984;DHT22;9117;52.420;20.728;2022-10-31T05:13:17;6.10;1.00
17984;DHT22;9117;52.420;20.728;2022-10-31T05:15:45;6.00;1.00
17984;DHT22;9117;52.420;20.728;2022-10-31T05:18:13;6.00;1.00
17984;DHT22;9117;52.420;20.728;2022-10-31T05:20:41;6.10;1.00
17984;DHT22;9117;52.420;20.728;2022-10-31T05:23:08;6.00;1.00
17984;DHT22;9117;52.420;20.728;2022-10-31T05:25:36;6.20;1.00
17984;DHT22;9117;52.420;20.728;2022-10-31T05:28:06;6.10;1.00
17984;DHT22;9117;52.420;20.728;2022-10-31T05:30:35;6.10;1.00
17984;DHT22;9117;52.420;20.728;2022-10-31T05:33:03;6.10;1.00
17984;DHT22;9117;52.420;20.728;2022-10-31T05:35:32;6.20;1.00
17984;DHT22;9117;52.420;20.728;2022-10-31T05:38:00;6.20;1.00
17984;DHT22;9117;52.420;20.728;2022-10-31T05:40:28;6.20;1.00
17984;DHT22;9117;52.420;20.728;2022-10-31T05:42:57;6.30;1.00
17984;DHT22;9117;52.420;20.728;2022-10-31T05:45:27;6.00;1.00
17984;DHT22;9117;52.420;20.728;2022-10-31T05:47:56;6.10;1.00
17984;DHT22;9117;52.420;20.728;2022-10-31T05:50:27;6.10;1.00
17984;DHT22;9117;52.420;20.728;2022-10-31T05:52:56;6.20;1.00
17984;DHT22;9117;52.420;20.728;2022-10-31T05:55:24;6.50;1.00
17984;DHT22;9117;52.420;20.728;2022-10-31T05:57:53;6.10;1.00
17984;DHT22;9117;52.420;20.728;2022-10-31T06:00:22;6.20;1.00
17984;DHT22;9117;52.420;20.728;2022-10-31T06:02:58;6.20;1.00
17984;DHT22;9117;52.420;20.728;2022-10-31T06:05:27;6.20;1.00
17984;DHT22;9117;52.420;20.728;2022-10-31T06:07:55;6.10;1.00
17984;DHT22;9117;52.420;20.728;2022-10-31T06:10:24;6.40;1.00
17984;DHT22;9117;52.420;20.728;2022-10-31T06:12:52;6.30;1.00
17984;DHT22;9117;52.420;20.728;2022-10-31T06:15:20;6.20;1.00
17984;DHT22;9117;52.420;20.728;2022-10-31T06:17:59;6.20;1.00
17984;DHT22;9117;52.420;20.728;2022-10-31T06:20:28;6.50;1.00
17984;DHT22;9117;52.420;20.728;2022-10-31T06:22:56;6.20;1.00
17984;DHT22;9117;52.420;20.728;2022-10-31T06:25:25;6.10;1.00
17984;DHT22;9117;52.420;20.728;2022-10-31T06:27:53;6.20;1.00
17984;DHT22;9117;52.420;20.728;2022-10-31T06:30:22;6.30;1.00
17984;DHT22;9117;52.420;20.728;2022-10-31T06:32:50;6.30;1.00
17984;DHT22;9117;52.420;20.728;2022-10-31T06:35:20;6.30;1.00
17984;DHT22;9117;52.420;20.728;2022-10-31T06:37:51;6.50;1.00
17984;DHT22;9117;52.420;20.728;2022-10-31T06:40:20;6.30;1.00
17984;DHT22;9117;52.420;20.728;2022-10-31T06:42:55;6.40;1.00
17984;DHT22;9117;52.420;20.728;2022-10-31T06:45:23;6.40;1.00
17984;DHT22;9117;52.420;20.728;2022-10-31T06:47:51;6.50;1.00
17984;DHT22;9117;52.420;20.728;2022-10-31T06:50:41;6.60;1.00
17984;DHT22;9117;52.420;20.728;2022-10-31T06:53:09;6.60;1.00
17984;DHT22;9117;52.420;20.728;2022-10-31T06:55:38;6.80;1.00
17984;DHT22;9117;52.420;20.728;2022-10-31T06:58:07;6.90;1.00
17984;DHT22;9117;52.420;20.728;2022-10-31T07:00:36;7.00;1.00
17984;DHT22;9117;52.420;20.728;2022-10-31T07:03:06;7.10;1.00
17984;DHT22;9117;52.420;20.728;2022-10-31T07:05:34;7.20;1.00
17984;DHT22;9117;52.420;20.728;2022-10-31T07:08:06;7.30;1.00
17984;DHT22;9117;52.420;20.728;2022-10-31T07:10:36;7.40;1.00
17984;DHT22;9117;52.420;20.728;2022-10-31T07:13:10;7.50;1.00
17984;DHT22;9117;52.420;20.728;2022-10-31T07:15:39;7.70;1.00
17984;DHT22;9117;52.420;20.728;2022-10-31T07:18:08;7.90;1.00
17984;DHT22;9117;52.420;20.728;2022-10-31T07:20:37;7.90;1.00
17984;DHT22;9117;52.420;20.728;2022-10-31T07:23:07;8.10;1.00
17984;DHT22;9117;52.420;20.728;2022-10-31T07:25:35;8.20;1.00
17984;DHT22;9117;52.420;20.728;2022-10-31T07:28:03;8.20;1.00
17984;DHT22;9117;52.420;20.728;2022-10-31T07:30:32;8.30;1.00
17984;DHT22;9117;52.420;20.728;2022-10-31T07:33:00;8.30;1.00
17984;DHT22;9117;52.420;20.728;2022-10-31T07:35:29;8.50;1.00
17984;DHT22;9117;52.420;20.728;2022-10-31T07:38:05;8.50;1.00
17984;DHT22;9117;52.420;20.728;2022-10-31T07:40:35;8.70;1.00
17984;DHT22;9117;52.420;20.728;2022-10-31T07:43:03;8.80;1.00
17984;DHT22;9117;52.420;20.728;2022-10-31T07:45:38;8.80;1.00
17984;DHT22;9117;52.420;20.728;2022-10-31T07:48:06;9.00;1.00
17984;DHT22;9117;52.420;20.728;2022-10-31T07:50:34;9.10;1.00
17984;DHT22;9117;52.420;20.728;2022-10-31T07:53:05;9.10;1.00
17984;DHT22;9117;52.420;20.728;2022-10-31T07:55:35;9.20;1.00
17984;DHT22;9117;52.420;20.728;2022-10-31T07:58:04;9.40;1.00
17984;DHT22;9117;52.420;20.728;2022-10-31T08:00:34;9.50;1.00
17984;DHT22;9117;52.420;20.728;2022-10-31T08:03:04;9.50;1.00
17984;DHT22;9117;52.420;20.728;2022-10-31T08:05:32;9.60;1.00
17984;DHT22;9117;52.420;20.728;2022-10-31T08:08:01;9.70;1.00
17984;DHT22;9117;52.420;20.728;2022-10-31T08:10:31;9.80;1.00
17984;DHT22;9117;52.420;20.728;2022-10-31T08:13:03;10.00;1.00
17984;DHT22;9117;52.420;20.728;2022-10-31T08:15:32;10.20;1.00
17984;DHT22;9117;52.420;20.728;2022-10-31T08:18:00;10.20;1.00
17984;DHT22;9117;52.420;20.728;2022-10-31T08:20:29;10.30;1.00
17984;DHT22;9117;52.420;20.728;2022-10-31T08:22:58;10.30;1.00
17984;DHT22;9117;52.420;20.728;2022-10-31T08:25:28;10.30;1.00
17984;DHT22;9117;52.420;20.728;2022-10-31T08:28:06;10.50;1.00
17984;DHT22;9117;52.420;20.728;2022-10-31T08:30:36;10.60;1.00
17984;DHT22;9117;52.420;20.728;2022-10-31T08:33:05;10.80;1.00
17984;DHT22;9117;52.420;20.728;2022-10-31T08:35:34;10.90;1.00
17984;DHT22;9117;52.420;20.728;2022-10-31T08:38:02;11.00;1.00
17984;DHT22;9117;52.420;20.728;2022-10-31T08:40:31;11.10;1.00
17984;DHT22;9117;52.420;20.728;2022-10-31T08:43:01;11.10;1.00
17984;DHT22;9117;52.420;20.728;2022-10-31T08:45:32;11.10;1.00
17984;DHT22;9117;52.420;20.728;2022-10-31T08:48:02;11.40;1.00
17984;DHT22;9117;52.420;20.728;2022-10-31T08:50:32;11.60;1.00
17984;DHT22;9117;52.420;20.728;2022-10-31T08:53:01;11.90;1.00
17984;DHT22;9117;52.420;20.728;2022-10-31T08:55:33;12.10;1.00
17984;DHT22;9117;52.420;20.728;2022-10-31T08:58:01;12.10;1.00
17984;DHT22;9117;52.420;20.728;2022-10-31T09:00:31;12.50;1.00
17984;DHT22;9117;52.420;20.728;2022-10-31T09:03:01;12.40;1.00
17984;DHT22;9117;52.420;20.728;2022-10-31T09:05:30;12.40;1.00
17984;DHT22;9117;52.420;20.728;2022-10-31T09:07:59;12.60;1.00
17984;DHT22;9117;52.420;20.728;2022-10-31T09:10:29;12.70;1.00
17984;DHT22;9117;52.420;20.728;2022-10-31T09:12:57;12.60;1.00
17984;DHT22;9117;52.420;20.728;2022-10-31T09:15:26;12.70;1.00
17984;DHT22;9117;52.420;20.728;2022-10-31T09:17:55;13.00;1.00
17984;DHT22;9117;52.420;20.728;2022-10-31T09:20:24;13.20;1.00
17984;DHT22;9117;52.420;20.728;2022-10-31T09:22:56;13.20;1.00
17984;DHT22;9117;52.420;20.728;2022-10-31T09:25:24;13.20;1.00
17984;DHT22;9117;52.420;20.728;2022-10-31T09:27:55;13.30;1.00
17984;DHT22;9117;52.420;20.728;2022-10-31T09:30:25;13.50;1.00
17984;DHT22;9117;52.420;20.728;2022-10-31T09:32:59;13.70;1.00
17984;DHT22;9117;52.420;20.728;2022-10-31T09:35:27;13.80;1.00
17984;DHT22;9117;52.420;20.728;2022-10-31T09:37:56;13.90;1.00
17984;DHT22;9117;52.420;20.728;2022-10-31T09:40:29;14.00;1.00
17984;DHT22;9117;52.420;20.728;2022-10-31T09:43:06;13.90;1.00
17984;DHT22;9117;52.420;20.728;2022-10-31T09:45:41;14.00;1.00
17984;DHT22;9117;52.420;20.728;2022-10-31T09:48:27;14.10;1.00
17984;DHT22;9117;52.420;20.728;2022-10-31T09:51:01;14.20;1.00
17984;DHT22;9117;52.420;20.728;2022-10-31T09:53:37;14.20;1.00
17984;DHT22;9117;52.420;20.728;2022-10-31T09:56:09;14.40;1.00
17984;DHT22;9117;52.420;20.728;2022-10-31T09:58:42;14.60;1.00
17984;DHT22;9117;52.420;20.728;2022-10-31T10:01:28;14.50;1.00
17984;DHT22;9117;52.420;20.728;2022-10-31T10:04:03;14.60;1.00
17984;DHT22;9117;52.420;20.728;2022-10-31T10:06:35;14.70;1.00
17984;DHT22;9117;52.420;20.728;2022-10-31T10:09:03;14.70;1.00
17984;DHT22;9117;52.420;20.728;2022-10-31T10:11:45;14.90;1.00
17984;DHT22;9117;52.420;20.728;2022-10-31T10:14:24;14.80;1.00
17984;DHT22;9117;52.420;20.728;2022-10-31T10:17:13;15.00;1.00
17984;DHT22;9117;52.420;20.728;2022-10-31T10:22:43;15.50;1.00
17984;DHT22;9117;52.420;20.728;2022-10-31T10:25:21;15.60;1.00
17984;DHT22;9117;52.420;20.728;2022-10-31T10:27:56;15.90;1.00
17984;DHT22;9117;52.420;20.728;2022-10-31T10:30:32;16.20;1.00
17984;DHT22;9117;52.420;20.728;2022-10-31T10:33:07;16.40;1.00
17984;DHT22;9117;52.420;20.728;2022-10-31T10:35:41;16.70;1.00
17984;DHT22;9117;52.420;20.728;2022-10-31T10:38:16;17.10;1.00
17984;DHT22;9117;52.420;20.728;2022-10-31T10:40:46;17.80;1.00
17984;DHT22;9117;52.420;20.728;2022-10-31T10:43:21;18.10;1.00
17984;DHT22;9117;52.420;20.728;2022-10-31T10:49:13;19.00;99.90
17984;DHT22;9117;52.420;20.728;2022-10-31T10:51:46;19.10;99.90
17984;DHT22;9117;52.420;20.728;2022-10-31T10:54:46;19.30;99.90
17984;DHT22;9117;52.420;20.728;2022-10-31T10:57:22;19.70;99.90
17984;DHT22;9117;52.420;20.728;2022-10-31T10:59:54;20.10;99.90
17984;DHT22;9117;52.420;20.728;2022-10-31T11:02:24;19.90;99.90
17984;DHT22;9117;52.420;20.728;2022-10-31T11:04:54;19.90;99.90
17984;DHT22;9117;52.420;20.728;2022-10-31T11:07:24;19.40;99.90
17984;DHT22;9117;52.420;20.728;2022-10-31T11:10:03;18.90;99.90
17984;DHT22;9117;52.420;20.728;2022-10-31T11:12:33;18.90;99.90
17984;DHT22;9117;52.420;20.728;2022-10-31T11:15:06;18.70;99.90
17984;DHT22;9117;52.420;20.728;2022-10-31T11:17:37;18.80;99.90
17984;DHT22;9117;52.420;20.728;2022-10-31T11:20:24;18.70;99.90
17984;DHT22;9117;52.420;20.728;2022-10-31T11:23:02;18.70;99.90
17984;DHT22;9117;52.420;20.728;2022-10-31T11:25:31;19.10;99.90
17984;DHT22;9117;52.420;20.728;2022-10-31T11:28:00;19.10;99.90
17984;DHT22;9117;52.420;20.728;2022-10-31T11:30:29;19.00;99.90
17984;DHT22;9117;52.420;20.728;2022-10-31T11:32:58;18.60;99.90
17984;DHT22;9117;52.420;20.728;2022-10-31T11:35:27;18.00;99.90
17984;DHT22;9117;52.420;20.728;2022-10-31T11:37:59;17.80;99.90
17984;DHT22;9117;52.420;20.728;2022-10-31T11:40:29;17.60;99.90
17984;DHT22;9117;52.420;20.728;2022-10-31T11:42:57;17.40;99.90
17984;DHT22;9117;52.420;20.728;2022-10-31T11:45:29;17.30;99.90
17984;DHT22;9117;52.420;20.728;2022-10-31T11:47:59;17.10;99.90
17984;DHT22;9117;52.420;20.728;2022-10-31T11:50:34;16.90;99.90
17984;DHT22;9117;52.420;20.728;2022-10-31T11:53:12;17.00;99.90
17984;DHT22;9117;52.420;20.728;2022-10-31T11:55:42;17.00;99.90
17984;DHT22;9117;52.420;20.728;2022-10-31T11:58:20;17.20;99.90
17984;DHT22;9117;52.420;20.728;2022-10-31T12:00:50;17.00;99.90
17984;DHT22;9117;52.420;20.728;2022-10-31T12:03:36;16.80;99.90
17984;DHT22;9117;52.420;20.728;2022-10-31T12:06:13;16.90;99.90
17984;DHT22;9117;52.420;20.728;2022-10-31T12:08:45;17.20;99.90
17984;DHT22;9117;52.420;20.728;2022-10-31T12:11:34;17.20;99.90
17984;DHT22;9117;52.420;20.728;2022-10-31T12:14:15;17.30;99.90
17984;DHT22;9117;52.420;20.728;2022-10-31T12:16:50;17.30;99.90
17984;DHT22;9117;52.420;20.728;2022-10-31T12:19:28;17.60;99.90
17984;DHT22;9117;52.420;20.728;2022-10-31T12:22:06;18.00;99.90
17984;DHT22;9117;52.420;20.728;2022-10-31T12:24:48;18.10;99.90
17984;DHT22;9117;52.420;20.728;2022-10-31T12:27:27;18.20;99.90
17984;DHT22;9117;52.420;20.728;2022-10-31T12:30:13;17.70;99.90
17984;DHT22;9117;52.420;20.728;2022-10-31T12:33:06;17.90;99.90
17984;DHT22;9117;52.420;20.728;2022-10-31T12:35:54;18.10;99.90
17984;DHT22;9117;52.420;20.728;2022-10-31T12:38:49;18.40;99.90
17984;DHT22;9117;52.420;20.728;2022-10-31T12:41:31;18.70;99.90
17984;DHT22;9117;52.420;20.728;2022-10-31T12:44:08;18.70;99.90
17984;DHT22;9117;52.420;20.728;2022-10-31T12:46:59;18.10;99.90
17984;DHT22;9117;52.420;20.728;2022-10-31T12:49:48;18.40;99.90
17984;DHT22;9117;52.420;20.728;2022-10-31T12:52:28;18.60;99.90
17984;DHT22;9117;52.420;20.728;2022-10-31T12:55:09;18.80;99.90
17984;DHT22;9117;52.420;20.728;2022-10-31T12:57:42;18.30;99.90
17984;DHT22;9117;52.420;20.728;2022-10-31T13:00:14;18.40;99.90
17984;DHT22;9117;52.420;20.728;2022-10-31T13:02:48;18.60;99.90
17984;DHT22;9117;52.420;20.728;2022-10-31T13:05:25;19.00;99.90
17984;DHT22;9117;52.420;20.728;2022-10-31T13:07:58;18.70;99.90
17984;DHT22;9117;52.420;20.728;2022-10-31T13:10:32;18.60;99.90
17984;DHT22;9117;52.420;20.728;2022-10-31T13:13:07;19.00;99.90
17984;DHT22;9117;52.420;20.728;2022-10-31T13:15:46;18.70;99.90
17984;DHT22;9117;52.420;20.728;2022-10-31T13:18:23;19.00;99.90
17984;DHT22;9117;52.420;20.728;2022-10-31T13:20:53;19.20;99.90
17984;DHT22;9117;52.420;20.728;2022-10-31T13:23:27;19.60;99.90
17984;DHT22;9117;52.420;20.728;2022-10-31T13:26:21;19.80;99.90
17984;DHT22;9117;52.420;20.728;2022-10-31T13:29:01;19.60;99.90
17984;DHT22;9117;52.420;20.728;2022-10-31T13:31:29;19.70;99.90
17984;DHT22;9117;52.420;20.728;2022-10-31T13:33:59;19.60;99.90
17984;DHT22;9117;52.420;20.728;2022-10-31T13:36:33;19.50;99.90
17984;DHT22;9117;52.420;20.728;2022-10-31T13:39:14;18.90;99.90
17984;DHT22;9117;52.420;20.728;2022-10-31T13:41:49;18.60;99.90
17984;DHT22;9117;52.420;20.728;2022-10-31T13:44:22;18.40;99.90
17984;DHT22;9117;52.420;20.728;2022-10-31T13:46:52;18.30;99.90
17984;DHT22;9117;52.420;20.728;2022-10-31T13:49:36;18.40;99.90
17984;DHT22;9117;52.420;20.728;2022-10-31T13:52:15;18.50;99.90
17984;DHT22;9117;52.420;20.728;2022-10-31T13:54:46;18.60;99.90
17984;DHT22;9117;52.420;20.728;2022-10-31T13:57:19;18.40;99.90
17984;DHT22;9117;52.420;20.728;2022-10-31T13:59:51;17.80;99.90
17984;DHT22;9117;52.420;20.728;2022-10-31T14:02:25;17.20;99.90
17984;DHT22;9117;52.420;20.728;2022-10-31T14:04:57;17.30;99.90
17984;DHT22;9117;52.420;20.728;2022-10-31T14:07:27;17.00;99.90
17984;DHT22;9117;52.420;20.728;2022-10-31T14:09:58;17.10;99.90
17984;DHT22;9117;52.420;20.728;2022-10-31T14:12:30;16.90;99.90
17984;DHT22;9117;52.420;20.728;2022-10-31T14:15:05;16.50;99.90
17984;DHT22;9117;52.420;20.728;2022-10-31T14:17:46;16.50;99.90
17984;DHT22;9117;52.420;20.728;2022-10-31T14:20:37;16.50;99.90
17984;DHT22;9117;52.420;20.728;2022-10-31T14:23:33;16.40;99.90
17984;DHT22;9117;52.420;20.728;2022-10-31T14:26:21;16.10;99.90
17984;DHT22;9117;52.420;20.728;2022-10-31T14:28:50;16.10;99.90
17984;DHT22;9117;52.420;20.728;2022-10-31T14:31:30;15.80;99.90
17984;DHT22;9117;52.420;20.728;2022-10-31T14:34:04;15.70;99.90
17984;DHT22;9117;52.420;20.728;2022-10-31T14:36:42;15.70;99.90
17984;DHT22;9117;52.420;20.728;2022-10-31T14:39:18;15.40;99.90
17984;DHT22;9117;52.420;20.728;2022-10-31T14:42:08;15.30;99.90
17984;DHT22;9117;52.420;20.728;2022-10-31T14:44:49;15.10;1.00
17984;DHT22;9117;52.420;20.728;2022-10-31T14:47:31;15.10;1.00
17984;DHT22;9117;52.420;20.728;2022-10-31T14:50:22;14.80;1.00
17984;DHT22;9117;52.420;20.728;2022-10-31T14:52:54;14.60;1.00
17984;DHT22;9117;52.420;20.728;2022-10-31T14:55:24;14.50;1.00
17984;DHT22;9117;52.420;20.728;2022-10-31T14:57:57;14.50;1.00
17984;DHT22;9117;52.420;20.728;2022-10-31T15:00:26;14.50;1.00
17984;DHT22;9117;52.420;20.728;2022-10-31T15:03:04;14.30;1.00
17984;DHT22;9117;52.420;20.728;2022-10-31T15:05:34;14.20;1.00
17984;DHT22;9117;52.420;20.728;2022-10-31T15:08:03;14.00;1.00
17984;DHT22;9117;52.420;20.728;2022-10-31T15:10:33;13.80;1.00
17984;DHT22;9117;52.420;20.728;2022-10-31T15:13:10;13.70;1.00
17984;DHT22;9117;52.420;20.728;2022-10-31T15:15:44;13.60;1.00
17984;DHT22;9117;52.420;20.728;2022-10-31T15:18:21;13.50;1.00
17984;DHT22;9117;52.420;20.728;2022-10-31T15:20:52;13.40;1.00
17984;DHT22;9117;52.420;20.728;2022-10-31T15:23:22;13.40;1.00
17984;DHT22;9117;52.420;20.728;2022-10-31T15:25:52;13.30;1.00
17984;DHT22;9117;52.420;20.728;2022-10-31T15:28:25;13.20;1.00
17984;DHT22;9117;52.420;20.728;2022-10-31T15:30:55;13.10;1.00
17984;DHT22;9117;52.420;20.728;2022-10-31T15:33:26;13.10;1.00
17984;DHT22;9117;52.420;20.728;2022-10-31T15:36:03;13.00;1.00
17984;DHT22;9117;52.420;20.728;2022-10-31T15:38:31;13.00;1.00
17984;DHT22;9117;52.420;20.728;2022-10-31T15:41:02;12.90;1.00
17984;DHT22;9117;52.420;20.728;2022-10-31T15:43:33;12.80;1.00
17984;DHT22;9117;52.420;20.728;2022-10-31T15:46:03;12.80;1.00
17984;DHT22;9117;52.420;20.728;2022-10-31T15:48:34;12.80;1.00
17984;DHT22;9117;52.420;20.728;2022-10-31T15:51:02;12.80;1.00
17984;DHT22;9117;52.420;20.728;2022-10-31T15:53:36;12.90;1.00
17984;DHT22;9117;52.420;20.728;2022-10-31T15:56:07;12.80;1.00
17984;DHT22;9117;52.420;20.728;2022-10-31T15:58:44;12.90;1.00
17984;DHT22;9117;52.420;20.728;2022-10-31T16:01:21;12.90;1.00
17984;DHT22;9117;52.420;20.728;2022-10-31T16:06:59;12.90;1.00
17984;DHT22;9117;52.420;20.728;2022-10-31T16:09:27;13.00;1.00
17984;DHT22;9117;52.420;20.728;2022-10-31T16:11:56;13.00;1.00
17984;DHT22;9117;52.420;20.728;2022-10-31T16:14:27;12.90;1.00
17984;DHT22;9117;52.420;20.728;2022-10-31T16:16:57;12.90;1.00
17984;DHT22;9117;52.420;20.728;2022-10-31T16:19:29;12.90;1.00
17984;DHT22;9117;52.420;20.728;2022-10-31T16:22:05;13.00;1.00
17984;DHT22;9117;52.420;20.728;2022-10-31T16:24:36;12.90;1.00
17984;DHT22;9117;52.420;20.728;2022-10-31T16:27:17;12.90;1.00
17984;DHT22;9117;52.420;20.728;2022-10-31T16:29:46;12.90;1.00
17984;DHT22;9117;52.420;20.728;2022-10-31T16:32:29;12.90;1.00